Anawalt, WV (24808)

3:24 AM EDT on September 27, 2016 (GMT -0400)
Wittens Mill | | Change Station

Elev 2589 ft 37.18 °N, 81.47 °W | Updated 2 minutes ago

Overcast
Overcast
60.6 °F
Feels Like 60.6 °F
N
7.3
Wind Variable Wind from WNW

Today
High -- | Low -- °F
--% Chance of Precip.
Yesterday
High -- | Low -- °F
Precip. -- in
Pressure 29.99 in
Visibility 4.0 miles
Clouds Overcast 300 ft
Dew Point 57 °F
Humidity 88%
Rainfall 0.13 in
Snow Depth Not available.
7:18 AM 7:14 PM
Waning Crescent, 13% visible
METAR KBLF 270652Z AUTO 32005KT 4SM BR OVC003 16/15 A3008 RMK AO2 RAB0558E17 CIG 002V006 SLP155 P0001 T01560150
Pressure 29.99 in
Visibility 4.0 miles
Clouds Overcast 300 ft
Dew Point 57 °F
Humidity 88%
Rainfall 0.13 in
Snow Depth Not available.
7:18 AM 7:14 PM
Waning Crescent, 13% visible
METAR KBLF 270652Z AUTO 32005KT 4SM BR OVC003 16/15 A3008 RMK AO2 RAB0558E17 CIG 002V006 SLP155 P0001 T01560150

10-Day Weather Forecast

Almanac

Astronomy

Sep. 27, 2016 Rise Set
Actual Time
Civil Twilight
Nautical Twilight
Astronomical Twilight
Moon
Length of Visible Light
Length of Day
Tomorrow will be .
, % of the Moon is Illuminated

Today's Extremes

State Highs State Lows

Community

WunderPhotos

Upload Photos

1,942,040 photos uploaded!

WunderBlog® & News

Nearby

Air Quality

  Air Quality AQ Index Pollutant
Not available.

Snow Depth

Station Depth Elevation

Earthquake Activity

City Distance Mag. Time & Date
Minimum magnitude displayed is 2.5.

Coastal Water Temperatures

Place Temperature

Stations

Nearby Weather Stations

Station Location Temp. Windchill Dew Point Humidity Wind Precip. Elev Updated Type
                   

Watches & Warnings

There are currently no watches in effect.